Time;durP1;ratioP1;P1;durP2;ratioP2;P2;SDS_P1;SDS_P2;PMS_P1;PMS_P2;Temp;Humidity;BMP_temperature;BMP_pressure;BME280_temperature;BME280_humidity;BME280_pressure;Samples;Min_cycle;Max_cycle;Signal;HPM_P1;HPM_P2
2021/01/12 00:00:11;;;;;;;14.80;11.27;;;;;;;2.67;95.77;99334.34;5055648;28;20078;-79
2021/01/12 00:02:37;;;;;;;15.85;10.30;;;;;;;2.69;96.02;99335.19;5056209;28;20056;-79
2021/01/12 00:05:03;;;;;;;13.35;9.70;;;;;;;2.69;96.03;99323.22;5055312;28;20480;-79
2021/01/12 00:07:29;;;;;;;14.43;9.88;;;;;;;2.71;96.02;99326.66;5056261;28;20029;-79
2021/01/12 00:09:54;;;;;;;12.52;8.25;;;;;;;2.74;95.88;99318.06;5055543;28;20119;-79
2021/01/12 00:12:19;;;;;;;13.50;9.30;;;;;;;2.80;95.92;99322.31;5057747;28;20025;-80
2021/01/12 00:14:48;;;;;;;13.93;10.70;;;;;;;2.81;95.82;99324.88;5056063;28;20017;-79
2021/01/12 00:17:14;;;;;;;10.93;7.88;;;;;;;2.83;96.18;99322.28;5057295;28;20084;-79
2021/01/12 00:19:39;;;;;;;16.05;10.73;;;;;;;2.84;96.33;99313.75;5056250;28;20052;-79
2021/01/12 00:22:15;;;;;;;14.52;9.70;;;;;;;2.93;95.75;99311.13;5057572;28;20024;-79
2021/01/12 00:24:45;;;;;;;9.98;6.68;;;;;;;2.95;95.76;99299.16;5058067;28;20061;-79
2021/01/12 00:27:14;;;;;;;14.32;9.73;;;;;;;3.01;95.78;99301.66;5057988;28;20055;-79
2021/01/12 00:29:40;;;;;;;10.77;7.13;;;;;;;3.00;95.74;99295.69;5056570;28;20442;-79
2021/01/12 00:32:06;;;;;;;13.93;9.93;;;;;;;2.98;96.37;99289.72;5057335;28;20028;-79
2021/01/12 00:34:32;;;;;;;19.50;11.63;;;;;;;2.99;96.34;99288.03;5057037;28;20473;-79
2021/01/12 00:36:58;;;;;;;12.98;9.38;;;;;;;3.08;95.92;99297.34;5058088;28;20028;-79
2021/01/12 00:39:23;;;;;;;11.32;7.25;;;;;;;3.08;96.37;99292.22;5059779;28;20031;-79
2021/01/12 00:41:51;;;;;;;14.05;7.38;;;;;;;3.09;96.12;99276.00;5058102;28;20546;-79
2021/01/12 00:44:17;;;;;;;17.13;11.88;;;;;;;3.11;96.27;99279.38;5059193;28;20028;-79
2021/01/12 00:46:44;;;;;;;12.63;9.45;;;;;;;3.25;95.89;99297.19;5056966;28;20044;-78
2021/01/12 00:49:11;;;;;;;8.10;5.03;;;;;;;3.25;95.81;99277.56;5058132;28;20056;-79
2021/01/12 00:51:38;;;;;;;11.57;8.60;;;;;;;3.26;95.92;99263.88;5057872;28;20481;-78
2021/01/12 00:54:05;;;;;;;15.63;11.05;;;;;;;3.24;95.92;99263.06;5056744;28;20103;-79
2021/01/12 00:56:30;;;;;;;12.23;8.05;;;;;;;3.30;96.00;99273.25;5055588;28;20576;-79
2021/01/12 00:58:56;;;;;;;14.43;10.55;;;;;;;3.33;96.13;99270.66;5058821;28;20105;-79
2021/01/12 01:01:21;;;;;;;8.88;5.85;;;;;;;3.35;96.20;99256.09;5058275;28;20025;-79
2021/01/12 01:03:46;;;;;;;13.43;8.55;;;;;;;3.39;95.91;99262.91;5057171;28;20089;-79
2021/01/12 01:06:12;;;;;;;13.75;8.60;;;;;;;3.39;96.02;99267.19;5058665;28;20021;-78
2021/01/12 01:08:37;;;;;;;13.20;8.85;;;;;;;3.41;95.78;99256.03;5057673;28;20060;-79
2021/01/12 01:11:02;;;;;;;13.55;9.85;;;;;;;3.42;96.08;99256.91;5057783;28;20028;-78
2021/01/12 01:13:28;;;;;;;12.05;8.60;;;;;;;3.43;96.10;99259.44;5056115;28;20025;-78
2021/01/12 01:15:53;;;;;;;9.30;5.15;;;;;;;3.52;95.69;99252.53;5057724;28;20052;-78
2021/01/12 01:18:18;;;;;;;12.27;8.20;;;;;;;3.49;95.87;99253.41;5058618;28;20106;-79
2021/01/12 01:20:43;;;;;;;9.18;6.00;;;;;;;3.54;95.82;99233.69;5067658;28;20036;-78
2021/01/12 01:23:09;;;;;;;10.43;5.93;;;;;;;3.56;95.63;99229.38;5066389;28;20033;-78
2021/01/12 01:25:34;;;;;;;8.05;5.07;;;;;;;3.63;95.16;99235.28;5066060;28;20043;-79
2021/01/12 01:27:59;;;;;;;10.07;7.72;;;;;;;3.60;95.60;99243.88;5068919;28;20037;-80
2021/01/12 01:30:24;;;;;;;10.73;7.45;;;;;;;3.59;95.87;99233.63;5059659;28;20035;-79
2021/01/12 01:32:50;;;;;;;13.60;8.40;;;;;;;3.56;96.01;99231.94;5058195;28;20040;-79
2021/01/12 01:35:15;;;;;;;11.63;8.30;;;;;;;3.58;95.95;99235.34;5058490;28;20384;-78
2021/01/12 01:37:40;;;;;;;11.00;7.13;;;;;;;3.59;95.69;99229.34;5059293;28;20017;-79
2021/01/12 01:40:06;;;;;;;10.30;7.20;;;;;;;3.60;95.85;99225.06;5058734;28;20025;-79
2021/01/12 01:42:31;;;;;;;12.80;7.10;;;;;;;3.56;96.23;99229.38;5058894;28;20369;-78
2021/01/12 01:44:58;;;;;;;11.02;7.03;;;;;;;3.64;95.52;99231.88;5058383;28;20033;-80
2021/01/12 01:47:24;;;;;;;12.15;8.00;;;;;;;3.55;96.13;99220.00;5057037;28;20048;-78
2021/01/12 01:49:50;;;;;;;10.30;7.47;;;;;;;3.64;95.76;99213.94;5057941;28;20151;-79
2021/01/12 01:52:15;;;;;;;12.20;8.05;;;;;;;3.65;95.81;99220.75;5056281;28;20025;-79
2021/01/12 01:54:41;;;;;;;8.98;6.68;;;;;;;3.67;95.49;99206.19;5057620;28;20032;-79
2021/01/12 01:57:06;;;;;;;8.35;5.90;;;;;;;3.75;94.81;99206.94;5056418;28;20025;-78
2021/01/12 01:59:32;;;;;;;9.30;6.40;;;;;;;3.69;95.29;99199.31;5056383;28;20067;-79
2021/01/12 02:01:57;;;;;;;10.60;6.95;;;;;;;3.65;95.90;99197.66;5056692;28;20117;-79
2021/01/12 02:04:52;;;;;;;9.00;6.28;;;;;;;3.65;95.57;99198.50;5056702;28;20415;-79
2021/01/12 02:07:19;;;;;;;5.47;2.70;;;;;;;3.73;94.96;99195.88;5054256;28;20047;-79
2021/01/12 02:09:49;;;;;;;9.38;4.53;;;;;;;3.69;95.13;99189.94;5056537;28;20484;-79
2021/01/12 02:12:34;;;;;;;8.57;5.63;;;;;;;3.71;95.20;99201.88;5056758;28;20060;-79
2021/01/12 02:15:02;;;;;;;9.20;5.82;;;;;;;3.75;94.74;99191.56;5055569;28;20031;-79
2021/01/12 02:17:30;;;;;;;12.15;6.63;;;;;;;3.67;95.45;99180.56;5057106;28;20029;-79
2021/01/12 02:19:56;;;;;;;10.43;8.15;;;;;;;3.67;95.62;99188.25;5056746;28;20100;-79
2021/01/12 02:22:22;;;;;;;8.70;6.18;;;;;;;3.67;95.45;99168.59;5055545;28;20053;-78
2021/01/12 02:24:48;;;;;;;8.52;5.80;;;;;;;3.71;95.63;99174.53;5057155;28;20072;-78
2021/01/12 02:30:45;;;;;;;8.88;6.07;;;;;;;3.71;95.60;99160.84;5021056;28;20047;-79
2021/01/12 02:33:11;;;;;;;10.13;7.18;;;;;;;3.68;96.03;99162.59;5055413;28;20021;-79
2021/01/12 02:35:39;;;;;;;10.93;7.85;;;;;;;3.69;96.04;99154.03;5055364;28;20111;-79
2021/01/12 02:38:05;;;;;;;8.88;6.03;;;;;;;3.71;95.52;99146.31;5055285;28;20025;-79
2021/01/12 02:40:31;;;;;;;9.52;7.25;;;;;;;3.70;95.66;99147.19;5054851;28;20473;-79
2021/01/12 02:42:57;;;;;;;10.65;6.63;;;;;;;3.69;95.73;99143.78;5055491;28;20028;-79
2021/01/12 02:45:22;;;;;;;9.10;6.13;;;;;;;3.72;95.73;99148.00;5055973;28;20036;-79
2021/01/12 02:47:48;;;;;;;7.72;4.68;;;;;;;3.73;95.83;99123.22;5056908;28;20025;-79
2021/01/12 02:50:15;;;;;;;8.85;5.85;;;;;;;3.76;95.43;99147.13;5055070;28;20491;-79
2021/01/12 02:52:42;;;;;;;12.60;8.55;;;;;;;3.73;95.74;99152.28;5054367;28;20025;-79
2021/01/12 02:55:09;;;;;;;9.93;6.80;;;;;;;3.68;96.31;99154.03;5054294;28;20107;-79
2021/01/12 02:57:35;;;;;;;9.70;6.82;;;;;;;3.68;96.07;99136.09;5055878;28;20021;-79
2021/01/12 03:00:03;;;;;;;8.77;6.13;;;;;;;3.82;95.38;99131.66;5054745;28;20029;-79
2021/01/12 03:05:52;;;;;;;11.43;7.18;;;;;;;3.76;96.14;99129.16;5040681;28;20040;-79
2021/01/12 03:08:17;;;;;;;8.20;4.28;;;;;;;3.88;95.23;99123.88;5056194;28;20021;-79
2021/01/12 03:10:43;;;;;;;9.25;6.78;;;;;;;3.86;95.51;99128.16;5054914;28;20021;-79
2021/01/12 03:13:08;;;;;;;9.68;7.35;;;;;;;3.85;95.91;99126.47;5055255;28;20115;-79
2021/01/12 03:15:38;;;;;;;9.23;6.38;;;;;;;3.81;96.07;99114.53;5055898;28;20060;-79
2021/01/12 03:18:07;;;;;;;7.80;4.72;;;;;;;3.89;95.37;99122.97;5056165;28;20025;-79
2021/01/12 03:20:33;;;;;;;9.27;6.72;;;;;;;3.90;95.35;99127.22;5054372;28;20055;-79
2021/01/12 03:22:58;;;;;;;9.43;4.68;;;;;;;3.88;95.66;99116.16;5054927;28;20033;-79
2021/01/12 03:25:24;;;;;;;9.85;7.28;;;;;;;3.86;95.75;99111.94;5055450;28;20111;-79
2021/01/12 03:27:49;;;;;;;11.38;7.45;;;;;;;3.81;96.29;99121.38;5055973;28;20492;-79
2021/01/12 03:30:16;;;;;;;8.30;5.72;;;;;;;3.84;96.21;99111.94;5055265;28;20442;-79
2021/01/12 03:32:41;;;;;;;13.50;7.65;;;;;;;3.84;96.35;99106.81;5053704;28;20021;-79
2021/01/12 03:35:08;;;;;;;9.57;7.13;;;;;;;3.82;96.38;99103.44;5055402;28;20043;-79
2021/01/12 03:37:33;;;;;;;9.25;6.72;;;;;;;3.83;96.42;99109.41;5055099;28;20400;-79
2021/01/12 03:39:58;;;;;;;9.60;6.47;;;;;;;3.86;96.22;99104.22;5054952;28;20021;-79
2021/01/12 03:42:23;;;;;;;10.00;6.50;;;;;;;3.88;95.89;99092.25;5052718;28;20115;-79
2021/01/12 03:44:49;;;;;;;7.78;5.30;;;;;;;3.90;96.08;99085.34;5053952;28;20151;-78
2021/01/12 03:47:14;;;;;;;10.23;6.50;;;;;;;3.86;96.21;99094.81;5054950;28;20025;-78
2021/01/12 03:49:39;;;;;;;8.95;5.80;;;;;;;3.85;96.24;99093.13;5053394;28;20051;-79
2021/01/12 03:52:04;;;;;;;7.13;4.82;;;;;;;3.89;96.25;99089.66;5054758;28;20104;-79
2021/01/12 03:54:30;;;;;;;8.90;5.60;;;;;;;3.86;96.44;99073.47;5054410;28;20028;-79
2021/01/12 03:56:55;;;;;;;6.97;3.80;;;;;;;3.89;96.31;99076.81;5053180;28;20024;-79
2021/01/12 03:59:20;;;;;;;8.35;5.70;;;;;;;3.90;96.22;99080.22;5053355;28;20021;-79
2021/01/12 04:01:45;;;;;;;8.43;5.65;;;;;;;3.91;96.29;99071.69;5055446;28;20373;-78
2021/01/12 04:04:11;;;;;;;8.10;5.78;;;;;;;3.88;96.05;99064.88;5053686;28;20099;-78
2021/01/12 04:06:36;;;;;;;8.73;5.50;;;;;;;3.96;95.88;99067.31;5054962;28;20021;-78
2021/01/12 04:09:03;;;;;;;6.82;4.53;;;;;;;3.90;96.16;99060.53;5055263;28;20100;-79
2021/01/12 04:11:30;;;;;;;7.80;4.60;;;;;;;3.92;96.18;99056.25;5056243;28;20028;-79
2021/01/12 04:13:55;;;;;;;8.07;5.50;;;;;;;3.95;95.81;99049.38;5054184;28;20025;-79
2021/01/12 04:16:23;;;;;;;6.50;3.85;;;;;;;3.99;95.97;99043.34;5053625;28;20044;-79
2021/01/12 04:18:49;;;;;;;7.28;4.93;;;;;;;3.99;95.74;99048.47;5055247;28;20469;-79
2021/01/12 04:21:14;;;;;;;7.03;4.75;;;;;;;3.97;95.81;99050.19;5054944;28;20107;-79
2021/01/12 04:23:39;;;;;;;7.10;4.88;;;;;;;3.98;95.88;99044.22;5055976;28;20499;-78
2021/01/12 04:26:04;;;;;;;8.32;5.25;;;;;;;3.98;95.94;99047.63;5055313;28;20041;-79
2021/01/12 04:28:30;;;;;;;7.72;5.20;;;;;;;3.98;95.89;99037.38;5053667;28;20029;-79
2021/01/12 04:30:55;;;;;;;7.43;4.93;;;;;;;3.93;96.21;99042.53;5053428;28;20025;-79
2021/01/12 04:33:20;;;;;;;7.25;4.85;;;;;;;3.98;96.16;99042.50;5053521;28;20029;-79
2021/01/12 04:35:45;;;;;;;7.85;5.20;;;;;;;3.95;96.01;99036.56;5053667;28;20016;-79
2021/01/12 04:38:11;;;;;;;6.95;4.32;;;;;;;4.00;96.13;99040.72;5055067;28;20424;-79
2021/01/12 04:40:36;;;;;;;5.90;3.67;;;;;;;3.99;96.12;99039.03;5055753;28;20025;-79
2021/01/12 04:43:01;;;;;;;8.85;5.28;;;;;;;4.03;95.92;99044.97;5054254;28;20029;-79
2021/01/12 04:45:27;;;;;;;7.00;4.60;;;;;;;4.01;96.34;99036.47;5055449;28;20083;-79
2021/01/12 04:47:52;;;;;;;7.15;5.05;;;;;;;4.00;96.02;99030.47;5054041;28;20028;-79
2021/01/12 04:50:18;;;;;;;8.20;5.32;;;;;;;4.01;96.20;99033.91;5053632;28;20017;-79
2021/01/12 04:52:44;;;;;;;7.25;5.05;;;;;;;4.01;96.22;99033.91;5054158;28;20017;-79
2021/01/12 04:55:10;;;;;;;7.80;5.68;;;;;;;3.96;95.97;99028.84;5058173;28;20481;-79
2021/01/12 04:57:36;;;;;;;8.43;5.32;;;;;;;3.99;96.35;99027.94;5058112;28;20025;-79
2021/01/12 05:00:04;;;;;;;8.82;5.53;;;;;;;4.04;96.17;99039.00;5057561;28;20102;-79
2021/01/12 05:02:31;;;;;;;9.10;6.18;;;;;;;4.00;96.56;99034.75;5057891;28;20111;-79
2021/01/12 05:04:56;;;;;;;8.15;5.43;;;;;;;4.00;96.26;99034.75;5059432;28;20029;-79
2021/01/12 05:07:21;;;;;;;8.23;5.65;;;;;;;3.99;96.52;99027.94;5058381;28;20144;-79
2021/01/12 05:09:46;;;;;;;7.32;5.53;;;;;;;3.99;96.93;99023.66;5058403;28;20021;-79
2021/01/12 05:12:14;;;;;;;7.35;5.28;;;;;;;4.03;96.39;99016.75;5058815;28;20114;-79
2021/01/12 05:14:41;;;;;;;8.68;5.80;;;;;;;4.01;96.33;99044.16;5056692;28;20033;-79
2021/01/12 05:17:07;;;;;;;11.55;7.13;;;;;;;3.95;97.14;99052.78;5057888;28;20060;-79
2021/01/12 05:19:33;;;;;;;11.88;7.13;;;;;;;3.89;97.28;99061.44;5058672;28;20024;-79
2021/01/12 05:22:03;;;;;;;10.13;6.72;;;;;;;3.90;97.62;99054.56;5058045;28;20029;-79
2021/01/12 05:24:29;;;;;;;9.68;5.57;;;;;;;3.84;97.41;99055.50;5057173;28;20025;-79
2021/01/12 05:27:06;;;;;;;8.18;4.68;;;;;;;3.86;97.53;99055.50;5056962;28;20124;-80
2021/01/12 05:29:36;;;;;;;7.20;4.50;;;;;;;3.84;97.53;99041.84;5056735;28;20024;-79
2021/01/12 05:32:03;;;;;;;6.50;3.88;;;;;;;3.84;97.46;99046.97;5056393;28;20025;-79
2021/01/12 05:34:31;;;;;;;7.40;3.97;;;;;;;3.82;97.44;99047.00;5057836;28;20094;-79
2021/01/12 05:36:56;;;;;;;7.57;4.47;;;;;;;3.82;97.51;99054.72;5056890;28;20017;-79
2021/01/12 05:39:24;;;;;;;5.57;2.78;;;;;;;3.75;97.44;99062.50;5056539;28;20491;-79
2021/01/12 05:41:57;;;;;;;8.73;3.25;;;;;;;3.72;97.42;99060.81;5056263;28;20444;-79
2021/01/12 05:44:24;;;;;;;9.63;2.70;;;;;;;3.67;97.72;99072.88;5058163;28;20070;-79
2021/01/12 05:46:51;;;;;;;6.82;2.10;;;;;;;3.58;97.81;99067.88;5056284;28;20025;-79
2021/01/12 05:49:18;;;;;;;7.15;2.15;;;;;;;3.53;97.63;99061.97;5057964;28;20432;-79
2021/01/12 05:51:46;;;;;;;5.72;1.98;;;;;;;3.48;97.56;99067.16;5056165;28;20040;-79
2021/01/12 05:54:29;;;;;;;5.97;1.50;;;;;;;3.49;97.52;99062.88;5055566;28;20106;-79
2021/01/12 05:57:00;;;;;;;4.95;1.42;;;;;;;3.48;97.41;99067.16;5056115;28;20021;-79
2021/01/12 05:59:28;;;;;;;6.43;1.20;;;;;;;3.43;97.76;99064.66;5057694;28;20032;-79
2021/01/12 06:01:55;;;;;;;6.75;1.27;;;;;;;3.37;97.50;99066.44;5056052;28;20063;-79
2021/01/12 06:04:21;;;;;;;6.15;1.23;;;;;;;3.36;97.53;99072.47;5056754;28;20122;-79
2021/01/12 06:06:50;;;;;;;6.53;1.40;;;;;;;3.32;97.49;99066.50;5055092;28;20472;-79
2021/01/12 06:09:17;;;;;;;5.15;0.98;;;;;;;3.32;97.72;99071.63;5056823;28;20024;-79
2021/01/12 06:11:45;;;;;;;10.18;1.55;;;;;;;3.31;97.69;99074.22;5058105;28;20021;-79
2021/01/12 06:14:11;;;;;;;11.18;1.08;;;;;;;3.26;97.76;99081.09;5058499;28;20020;-79
2021/01/12 06:16:39;;;;;;;4.93;1.10;;;;;;;3.25;97.90;99079.41;5056191;28;20028;-79
2021/01/12 06:19:11;;;;;;;8.43;1.52;;;;;;;3.25;97.89;99081.97;5056753;28;20071;-79
2021/01/12 06:21:55;;;;;;;7.38;2.10;;;;;;;3.23;97.65;99089.66;5056699;28;20052;-79
2021/01/12 06:24:23;;;;;;;;;;;;;;;3.11;97.48;99095.81;5058292;28;20053;-79
2021/01/12 06:26:53;;;;;;;3.35;1.10;;;;;;;2.97;97.28;99095.97;5058756;28;19967;-79
2021/01/12 06:29:21;;;;;;;5.47;1.40;;;;;;;2.77;96.90;99105.56;5059236;28;20499;-79
2021/01/12 06:31:48;;;;;;;6.00;1.20;;;;;;;2.64;96.57;99111.66;5056771;28;20477;-79
2021/01/12 06:34:19;;;;;;;7.85;1.05;;;;;;;2.58;96.69;99129.63;5058198;28;20378;-79
2021/01/12 06:37:03;;;;;;;4.55;0.85;;;;;;;2.42;96.69;99134.88;5056648;28;20024;-80
2021/01/12 06:39:39;;;;;;;4.15;0.68;;;;;;;2.30;96.57;99135.81;5056609;28;20024;-79
2021/01/12 06:42:05;;;;;;;3.38;0.68;;;;;;;2.21;96.02;99135.06;5056704;28;20127;-79
2021/01/12 06:44:33;;;;;;;1.50;0.40;;;;;;;2.01;95.20;99145.44;5058098;28;20508;-79
2021/01/12 06:46:59;;;;;;;4.85;0.90;;;;;;;1.81;95.26;99140.44;5058380;28;20029;-79
2021/01/12 06:49:27;;;;;;;2.22;0.52;;;;;;;1.61;95.04;99153.31;5056692;28;20025;-79
2021/01/12 06:52:01;;;;;;;2.72;0.43;;;;;;;1.59;95.05;99143.09;5055847;28;20112;-79
2021/01/12 06:54:35;;;;;;;4.57;0.60;;;;;;;1.47;95.72;99153.38;5057319;28;20021;-79
2021/01/12 06:57:09;;;;;;;3.10;0.57;;;;;;;1.38;96.25;99154.25;5056130;28;20496;-79
2021/01/12 06:59:44;;;;;;;4.00;0.90;;;;;;;1.37;96.28;99156.81;5056693;28;20025;-79
2021/01/12 07:02:17;;;;;;;4.93;0.60;;;;;;;1.34;95.97;99165.34;5057219;28;20028;-79
2021/01/12 07:05:07;;;;;;;6.80;1.50;;;;;;;1.39;96.01;99167.91;5058306;28;20036;-79
2021/01/12 07:07:37;;;;;;;6.15;0.68;;;;;;;1.27;96.07;99162.84;5056625;28;20052;-78
2021/01/12 07:10:05;;;;;;;4.45;0.80;;;;;;;1.31;96.59;99160.25;5059460;28;20029;-79
2021/01/12 07:12:31;;;;;;;3.97;0.60;;;;;;;1.31;95.95;99157.69;5064781;28;20028;-79
2021/01/12 07:14:58;;;;;;;3.15;0.50;;;;;;;1.32;96.25;99163.66;5061160;28;20107;-79
2021/01/12 07:17:29;;;;;;;5.88;0.70;;;;;;;1.24;96.14;99162.84;5056503;28;20108;-79
2021/01/12 07:20:09;;;;;;;7.60;0.80;;;;;;;1.21;95.89;99161.16;5056528;28;20496;-79
2021/01/12 07:22:37;;;;;;;6.32;0.70;;;;;;;1.29;96.33;99166.22;5056300;28;20499;-79
2021/01/12 07:25:05;;;;;;;3.55;0.60;;;;;;;1.27;96.38;99170.50;5056270;28;20028;-79
2021/01/12 07:27:30;;;;;;;5.15;0.70;;;;;;;1.21;96.26;99160.28;5058368;28;20050;-79
2021/01/12 07:29:56;;;;;;;5.45;0.95;;;;;;;1.18;95.84;99167.97;5058469;28;20020;-79
2021/01/12 07:32:38;;;;;;;5.43;0.70;;;;;;;1.21;96.31;99173.91;5057630;28;20369;-79
2021/01/12 07:35:07;;;;;;;7.28;1.00;;;;;;;1.21;96.09;99180.72;5057374;28;20024;-79
2021/01/12 07:37:38;;;;;;;4.60;0.82;;;;;;;1.18;95.94;99175.63;5057389;28;20025;-79
2021/01/12 07:40:06;;;;;;;6.18;0.77;;;;;;;1.17;95.32;99171.34;5055669;28;20052;-79
2021/01/12 07:42:32;;;;;;;8.23;1.08;;;;;;;1.14;95.35;99172.25;5056477;28;20028;-79
2021/01/12 07:44:57;;;;;;;6.28;0.75;;;;;;;1.13;95.33;99176.47;5057708;28;20029;-79
2021/01/12 07:47:23;;;;;;;7.25;0.82;;;;;;;1.14;95.20;99178.19;5055698;28;20025;-79
2021/01/12 07:49:49;;;;;;;5.45;0.57;;;;;;;1.12;95.29;99181.59;5057459;28;20028;-79
2021/01/12 07:52:17;;;;;;;7.47;0.80;;;;;;;1.09;95.90;99179.03;5056442;28;20123;-79
2021/01/12 07:54:42;;;;;;;7.78;0.80;;;;;;;1.13;95.20;99183.28;5055810;28;20036;-79
2021/01/12 07:57:12;;;;;;;6.22;0.80;;;;;;;1.12;95.70;99184.16;5056620;28;20400;-79
2021/01/12 07:59:38;;;;;;;6.00;0.80;;;;;;;1.09;95.38;99179.91;5056685;28;20025;-79
2021/01/12 08:02:07;;;;;;;6.47;1.08;;;;;;;1.09;95.68;99179.91;5055677;28;20048;-79
2021/01/12 08:04:32;;;;;;;9.68;1.27;;;;;;;1.09;95.54;99185.00;5056243;28;20051;-79
2021/01/12 08:06:58;;;;;;;6.53;1.40;;;;;;;1.11;95.95;99190.97;5057822;28;20116;-79
2021/01/12 08:09:24;;;;;;;7.65;1.10;;;;;;;1.13;96.03;99194.34;5057958;28;20021;-79
2021/01/12 08:12:01;;;;;;;10.88;1.30;;;;;;;1.11;95.95;99197.78;5057360;28;20132;-79
2021/01/12 08:14:27;;;;;;;4.35;0.50;;;;;;;1.06;96.67;99197.78;5054097;28;20021;-79
2021/01/12 08:16:53;;;;;;;8.85;0.77;;;;;;;1.11;96.26;99201.19;5053099;28;20017;-79
2021/01/12 08:19:25;;;;;;;6.68;0.77;;;;;;;1.08;95.60;99196.06;5055800;28;20025;-78
2021/01/12 08:21:52;;;;;;;10.95;1.05;;;;;;;1.12;95.72;99202.03;5054923;28;20436;-78
2021/01/12 08:24:22;;;;;;;7.25;0.77;;;;;;;1.14;95.54;99206.28;5056039;28;20048;-79
2021/01/12 08:26:48;;;;;;;6.93;0.80;;;;;;;1.20;95.76;99212.19;5054091;28;20029;-79
2021/01/12 08:29:14;;;;;;;5.70;0.88;;;;;;;1.24;95.69;99213.91;5053791;28;20036;-79
2021/01/12 08:32:09;;;;;;;6.07;0.93;;;;;;;1.28;95.08;99218.16;5052947;28;20025;-79
2021/01/12 08:34:51;;;;;;;3.30;0.80;;;;;;;1.34;94.79;99221.53;5050832;28;20032;-79
2021/01/12 08:37:19;;;;;;;7.53;0.95;;;;;;;1.36;95.14;99221.56;5052665;28;20481;-78
2021/01/12 08:39:45;;;;;;;9.38;1.10;;;;;;;1.41;95.29;99224.06;5053353;28;20028;-79
2021/01/12 08:42:12;;;;;;;6.18;0.75;;;;;;;1.38;94.42;99230.03;5052615;28;20025;-78
2021/01/12 08:44:42;;;;;;;7.22;1.20;;;;;;;1.41;95.10;99229.19;5054409;28;20028;-79
2021/01/12 08:47:08;;;;;;;4.78;0.90;;;;;;;1.44;95.27;99242.78;5053250;28;20043;-79
2021/01/12 08:49:34;;;;;;;7.43;1.02;;;;;;;1.49;95.00;99233.44;5053121;28;20547;-79
2021/01/12 08:52:02;;;;;;;7.55;0.85;;;;;;;1.52;95.10;99242.78;5053554;28;20052;-79
2021/01/12 08:54:28;;;;;;;12.10;1.92;;;;;;;1.52;94.64;99242.78;5051877;28;20108;-78
2021/01/12 08:57:02;;;;;;;5.82;0.98;;;;;;;1.49;95.25;99248.75;5053183;28;20112;-79
2021/01/12 08:59:29;;;;;;;9.00;1.02;;;;;;;1.51;94.24;99252.16;5052099;28;20108;-79
2021/01/12 09:01:56;;;;;;;9.60;1.33;;;;;;;1.51;94.60;99251.28;5052129;28;20514;-79
2021/01/12 09:04:22;;;;;;;8.02;0.85;;;;;;;1.50;95.34;99263.22;5053391;28;20024;-79
2021/01/12 09:07:05;;;;;;;15.57;1.27;;;;;;;1.56;94.58;99265.75;5051738;28;20370;-78
2021/01/12 09:09:31;;;;;;;6.72;1.15;;;;;;;1.61;94.92;99266.59;5052027;28;20071;-79
2021/01/12 09:11:59;;;;;;;12.23;1.30;;;;;;;1.59;94.63;99275.97;5053545;28;20029;-78
2021/01/12 09:14:28;;;;;;;10.82;1.33;;;;;;;1.56;94.66;99272.59;5053387;28;20028;-79
2021/01/12 09:16:56;;;;;;;11.85;1.00;;;;;;;1.55;94.42;99269.19;5052564;28;20028;-79
2021/01/12 09:19:22;;;;;;;5.13;1.00;;;;;;;1.54;94.26;99272.59;5051370;28;20113;-79
2021/01/12 09:21:47;;;;;;;14.00;1.50;;;;;;;1.63;94.35;99273.41;5052731;28;20455;-79
2021/01/12 09:24:20;;;;;;;9.43;1.20;;;;;;;1.69;94.29;99274.22;5052723;28;20037;-78
2021/01/12 09:26:46;;;;;;;9.50;1.08;;;;;;;1.74;93.97;99281.91;5051345;28;20033;-78
2021/01/12 09:29:12;;;;;;;11.13;1.77;;;;;;;1.67;94.12;99277.69;5051658;28;20021;-78
2021/01/12 09:31:48;;;;;;;8.40;1.48;;;;;;;1.65;93.77;99285.34;5051794;28;20090;-78
2021/01/12 09:34:20;;;;;;;6.68;1.15;;;;;;;1.67;93.15;99291.31;5052923;28;20025;-78
2021/01/12 09:36:45;;;;;;;12.75;1.42;;;;;;;1.61;93.02;99292.16;5052066;28;20116;-78
2021/01/12 09:39:12;;;;;;;6.75;1.10;;;;;;;1.51;93.68;99294.72;5051866;28;20489;-79
2021/01/12 09:41:39;;;;;;;9.15;1.20;;;;;;;1.42;93.72;99295.63;5055147;28;20400;-79
2021/01/12 09:44:04;;;;;;;8.80;1.50;;;;;;;1.40;94.57;99299.03;5057088;28;20032;-79
2021/01/12 09:46:29;;;;;;;6.70;1.42;;;;;;;1.33;94.44;99308.41;5056813;28;20028;-79
2021/01/12 09:48:56;;;;;;;10.05;1.20;;;;;;;1.31;94.28;99310.09;5056822;28;20025;-79
2021/01/12 09:51:23;;;;;;;8.90;1.90;;;;;;;1.25;94.33;99310.94;5055802;28;20111;-79
2021/01/12 09:53:49;;;;;;;11.68;1.55;;;;;;;1.19;94.61;99307.56;5056888;28;20040;-78
2021/01/12 09:56:17;;;;;;;12.77;1.63;;;;;;;1.11;94.88;99313.53;5055440;28;20032;-79
2021/01/12 09:58:48;;;;;;;8.13;1.20;;;;;;;1.03;95.41;99305.00;5055633;28;20055;-78
2021/01/12 10:01:13;;;;;;;10.27;1.60;;;;;;;1.03;95.51;99319.47;5056973;28;20021;-78
2021/01/12 10:03:39;;;;;;;15.27;1.50;;;;;;;1.04;95.33;99322.00;5055782;28;20384;-79
2021/01/12 10:06:04;;;;;;;13.52;1.60;;;;;;;1.10;94.39;99316.06;5055437;28;20079;-79
2021/01/12 10:08:31;;;;;;;9.63;1.42;;;;;;;1.17;94.93;99312.69;5055326;28;20511;-78
2021/01/12 10:10:56;;;;;;;9.65;1.35;;;;;;;1.21;94.90;99319.47;5056084;28;20124;-78
2021/01/12 10:13:22;;;;;;;9.30;1.85;;;;;;;1.27;94.40;99311.81;5056387;28;20067;-78
2021/01/12 10:15:48;;;;;;;8.75;1.52;;;;;;;1.34;94.41;99317.75;5056024;28;20021;-79
2021/01/12 10:18:13;;;;;;;11.32;1.88;;;;;;;1.36;94.39;99313.50;5055405;28;20017;-78
2021/01/12 10:20:38;;;;;;;12.88;1.55;;;;;;;1.47;94.56;99316.88;5056778;28;20036;-78
2021/01/12 10:23:04;;;;;;;16.15;1.52;;;;;;;1.53;94.44;99316.03;5058124;28;20143;-79
2021/01/12 10:25:29;;;;;;;9.90;1.63;;;;;;;1.56;93.97;99316.88;5062215;28;20056;-79
2021/01/12 10:27:56;;;;;;;7.40;1.50;;;;;;;1.62;93.94;99321.13;5058933;28;20025;-79
2021/01/12 10:30:21;;;;;;;11.18;1.40;;;;;;;1.65;93.47;99322.81;5061499;28;20029;-79
2021/01/12 10:32:47;;;;;;;7.65;1.30;;;;;;;1.66;93.17;99324.50;5065578;28;20056;-79
2021/01/12 10:35:13;;;;;;;7.57;1.13;;;;;;;1.61;93.29;99321.97;5065945;28;20021;-79
2021/01/12 10:37:39;;;;;;;11.85;1.42;;;;;;;1.69;92.80;99321.94;5059942;28;20071;-79
2021/01/12 10:40:05;;;;;;;10.75;1.33;;;;;;;1.66;92.69;99311.72;5060079;28;20515;-79
2021/01/12 10:42:31;;;;;;;7.32;1.23;;;;;;;1.73;92.32;99313.44;5060778;28;20041;-80
2021/01/12 10:44:56;;;;;;;13.52;2.22;;;;;;;1.87;92.15;99315.94;5058699;28;20155;-79
2021/01/12 10:47:22;;;;;;;8.50;1.35;;;;;;;2.06;91.07;99312.44;5059215;28;20036;-79
2021/01/12 10:49:47;;;;;;;5.47;1.13;;;;;;;1.91;91.61;99312.50;5060728;28;20032;-80
2021/01/12 10:52:13;;;;;;;9.35;1.13;;;;;;;2.05;90.82;99308.22;5059836;28;20025;-79
2021/01/12 10:54:38;;;;;;;11.48;1.92;;;;;;;2.13;89.95;99308.19;5060455;28;20028;-80
2021/01/12 10:57:08;;;;;;;13.07;1.80;;;;;;;2.51;87.39;99310.53;5063435;28;20060;-80
2021/01/12 10:59:33;;;;;;;16.38;1.73;;;;;;;3.37;84.36;99312.47;5064048;28;20124;-80
2021/01/12 11:02:01;;;;;;;11.13;1.40;;;;;;;3.40;83.76;99313.28;5064048;28;20024;-80
2021/01/12 11:04:26;;;;;;;9.05;1.20;;;;;;;3.26;84.01;99312.53;5062058;28;20059;-80
2021/01/12 11:06:54;;;;;;;6.15;1.10;;;;;;;3.65;82.94;99318.16;5063056;28;20028;-80
2021/01/12 11:09:20;;;;;;;7.32;1.30;;;;;;;4.47;78.98;99320.66;5063054;28;20191;-80
2021/01/12 11:11:48;;;;;;;10.80;1.52;;;;;;;4.27;79.42;99318.31;5062575;28;20031;-80
2021/01/12 11:14:18;;;;;;;9.07;1.55;;;;;;;3.71;80.79;99315.53;5061403;28;20084;-81
2021/01/12 11:16:44;;;;;;;9.70;1.40;;;;;;;4.03;80.35;99316.91;5060032;28;20473;-80
2021/01/12 11:19:10;;;;;;;13.77;1.50;;;;;;;3.93;79.25;99313.59;5062492;28;20493;-80
2021/01/12 11:21:46;;;;;;;10.43;1.25;;;;;;;4.28;78.20;99312.31;5061321;28;20024;-80
2021/01/12 11:24:13;;;;;;;12.35;1.20;;;;;;;4.64;76.93;99310.13;5063827;28;20029;-80
2021/01/12 11:26:42;;;;;;;12.00;1.50;;;;;;;4.48;78.13;99310.34;5063123;28;20119;-80
2021/01/12 11:29:09;;;;;;;11.15;1.38;;;;;;;5.31;74.07;99309.06;5061562;28;20075;-80
2021/01/12 11:31:35;;;;;;;8.25;1.20;;;;;;;6.23;71.47;99303.06;5059500;28;20035;-80
2021/01/12 11:34:01;;;;;;;7.65;1.38;;;;;;;5.07;72.89;99303.44;5060507;28;20028;-81
2021/01/12 11:36:34;;;;;;;10.57;1.75;;;;;;;5.96;69.82;99307.03;5061032;28;20017;-80
2021/01/12 11:39:00;;;;;;;7.35;1.48;;;;;;;6.67;67.13;99297.84;5060173;28;20086;-80
2021/01/12 11:41:26;;;;;;;12.35;1.42;;;;;;;6.52;66.66;99298.16;5061571;28;20036;-80
2021/01/12 11:43:51;;;;;;;6.82;1.02;;;;;;;6.77;66.02;99301.03;5063294;28;20021;-80
2021/01/12 11:46:17;;;;;;;6.18;1.00;;;;;;;6.64;63.03;99297.91;5061078;28;20024;-80